createdAt,value
2018-07-02T00:00:09.798Z,5.97
2018-07-02T00:02:38.373Z,4.17
2018-07-02T00:05:07.042Z,4.83
2018-07-02T00:07:35.637Z,7.83
2018-07-02T00:10:04.233Z,6.27
2018-07-02T00:12:32.845Z,5.00
2018-07-02T00:15:01.721Z,4.23
2018-07-02T00:17:30.546Z,5.30
2018-07-02T00:19:59.036Z,4.73
2018-07-02T00:22:27.555Z,5.37
2018-07-02T00:25:02.599Z,7.50
2018-07-02T00:27:31.147Z,6.57
2018-07-02T00:29:59.672Z,6.13
2018-07-02T00:32:28.222Z,6.53
2018-07-02T00:34:56.727Z,6.20
2018-07-02T00:37:25.240Z,4.53
2018-07-02T00:39:53.746Z,5.13
2018-07-02T00:42:22.275Z,4.67
2018-07-02T00:44:50.791Z,4.77
2018-07-02T00:47:19.355Z,4.17
2018-07-02T00:49:47.882Z,6.50
2018-07-02T00:52:16.426Z,5.87
2018-07-02T00:54:44.950Z,7.27
2018-07-02T00:57:13.519Z,7.80
2018-07-02T00:59:42.043Z,4.53
2018-07-02T01:02:10.654Z,5.43
2018-07-02T01:04:39.166Z,7.03
2018-07-02T01:07:08.752Z,5.37
2018-07-02T01:09:37.316Z,5.10
2018-07-02T01:12:06.063Z,4.50
2018-07-02T01:14:34.547Z,4.33
2018-07-02T01:17:02.795Z,4.20
2018-07-02T01:19:31.317Z,4.63
2018-07-02T01:21:59.910Z,5.43
2018-07-02T01:24:28.419Z,4.73
2018-07-02T01:26:56.910Z,4.47
2018-07-02T01:29:25.442Z,3.43
2018-07-02T01:31:53.972Z,4.70
2018-07-02T01:34:22.515Z,5.97
2018-07-02T01:36:51.024Z,4.63
2018-07-02T01:39:19.573Z,5.17
2018-07-02T01:41:48.066Z,5.70
2018-07-02T01:44:16.561Z,4.13
2018-07-02T01:46:45.138Z,4.00
2018-07-02T01:49:13.650Z,4.30
2018-07-02T01:51:42.203Z,4.23
2018-07-02T01:54:10.838Z,6.93
2018-07-02T01:56:39.513Z,4.60
2018-07-02T01:59:07.999Z,4.17
2018-07-02T02:01:36.518Z,6.23
2018-07-02T02:04:05.067Z,7.23
2018-07-02T02:06:33.575Z,7.23
2018-07-02T02:09:02.135Z,6.10
2018-07-02T02:11:30.742Z,5.70
2018-07-02T02:13:59.244Z,8.53
2018-07-02T02:16:27.764Z,7.97
2018-07-02T02:18:56.321Z,4.93
2018-07-02T02:21:24.809Z,6.30
2018-07-02T02:23:53.320Z,6.60
2018-07-02T02:26:21.871Z,7.23
2018-07-02T02:28:50.434Z,5.63
2018-07-02T02:31:19.017Z,7.53
2018-07-02T02:33:47.635Z,6.40
2018-07-02T02:36:16.193Z,7.07
2018-07-02T02:38:44.691Z,5.87
2018-07-02T02:41:13.261Z,8.63
2018-07-02T02:43:41.766Z,7.90
2018-07-02T02:46:10.312Z,6.73
2018-07-02T02:48:39.098Z,7.97
2018-07-02T02:51:07.718Z,8.30
2018-07-02T02:53:36.239Z,7.83
2018-07-02T02:56:05.370Z,7.77
2018-07-02T02:58:33.893Z,7.60
2018-07-02T03:01:02.467Z,9.00
2018-07-02T03:03:31.063Z,10.20
2018-07-02T03:06:00.178Z,8.83
2018-07-02T03:08:28.744Z,10.20
2018-07-02T03:10:57.270Z,7.87
2018-07-02T03:13:25.762Z,8.40
2018-07-02T03:15:54.284Z,7.83
2018-07-02T03:18:22.886Z,9.47
2018-07-02T03:20:51.470Z,11.33
2018-07-02T03:23:20.043Z,9.73
2018-07-02T03:25:48.546Z,9.47
2018-07-02T03:28:17.066Z,10.93
2018-07-02T03:30:45.650Z,10.50
2018-07-02T03:33:14.166Z,10.57
2018-07-02T03:35:43.082Z,8.50
2018-07-02T03:38:11.622Z,9.43
2018-07-02T03:40:40.411Z,9.37
2018-07-02T03:43:08.990Z,12.07
2018-07-02T03:45:37.574Z,11.43
2018-07-02T03:48:06.154Z,10.13
2018-07-02T03:50:34.681Z,12.37
2018-07-02T03:53:03.218Z,10.60
2018-07-02T03:55:31.762Z,14.00
2018-07-02T03:58:00.254Z,9.67
2018-07-02T04:00:28.759Z,8.60
2018-07-02T04:02:57.326Z,10.30
2018-07-02T04:05:25.930Z,12.67
2018-07-02T04:07:54.568Z,9.73
2018-07-02T04:10:23.208Z,9.20
2018-07-02T04:12:51.823Z,10.10
2018-07-02T04:15:20.338Z,9.37
2018-07-02T04:17:48.826Z,9.37
2018-07-02T04:20:17.382Z,9.17
2018-07-02T04:22:45.954Z,9.57
2018-07-02T04:25:14.668Z,11.97
2018-07-02T04:27:43.162Z,9.63
2018-07-02T04:30:11.671Z,9.77
2018-07-02T04:32:40.844Z,9.13
2018-07-02T04:35:09.315Z,8.90
2018-07-02T04:37:37.836Z,9.97
2018-07-02T04:40:06.357Z,11.10
2018-07-02T04:42:34.862Z,9.53
2018-07-02T04:45:03.448Z,8.83
2018-07-02T04:47:31.974Z,10.10
2018-07-02T04:50:00.458Z,10.50
2018-07-02T04:52:29.049Z,10.90
2018-07-02T04:54:57.553Z,11.33
2018-07-02T04:57:26.081Z,10.70
2018-07-02T04:59:54.690Z,10.27
2018-07-02T05:02:23.170Z,12.83
2018-07-02T05:04:51.708Z,11.17
2018-07-02T05:07:20.258Z,9.33
2018-07-02T05:09:48.726Z,10.63
2018-07-02T05:12:17.227Z,13.37
2018-07-02T05:14:45.707Z,10.60
2018-07-02T05:17:14.183Z,10.03
2018-07-02T05:19:42.699Z,8.87
2018-07-02T05:22:11.214Z,9.37
2018-07-02T05:24:39.710Z,11.33
2018-07-02T05:27:08.228Z,14.97
2018-07-02T05:29:36.806Z,15.23
2018-07-02T05:32:05.322Z,10.60
2018-07-02T05:34:33.846Z,9.70
2018-07-02T05:37:02.391Z,9.27
2018-07-02T05:39:30.897Z,10.07
2018-07-02T05:41:59.378Z,9.53
2018-07-02T05:44:27.872Z,9.70
2018-07-02T05:46:56.430Z,10.47
2018-07-02T05:49:24.946Z,8.50
2018-07-02T05:51:53.509Z,6.77
2018-07-02T05:54:22.024Z,9.53
2018-07-02T05:56:50.498Z,9.67
2018-07-02T05:59:18.998Z,7.73
2018-07-02T06:01:47.543Z,9.03
2018-07-02T06:04:16.110Z,7.63
2018-07-02T06:06:44.680Z,8.47
2018-07-02T06:09:13.721Z,9.70
2018-07-02T06:11:42.351Z,11.40
2018-07-02T06:14:11.585Z,6.90
2018-07-02T06:16:40.283Z,9.40
2018-07-02T06:19:09.327Z,9.93
2018-07-02T06:21:37.834Z,7.03
2018-07-02T06:24:06.362Z,9.07
2018-07-02T06:26:34.582Z,6.67
2018-07-02T06:29:03.044Z,8.20
2018-07-02T06:31:31.579Z,9.70
2018-07-02T06:34:00.120Z,6.87
2018-07-02T06:39:23.592Z,6.10
2018-07-02T06:41:52.075Z,7.53
2018-07-02T06:44:20.550Z,7.23
2018-07-02T06:46:49.028Z,7.53
2018-07-02T06:49:17.535Z,5.97
2018-07-02T06:51:46.023Z,6.80
2018-07-02T06:54:14.762Z,5.63
2018-07-02T06:56:43.270Z,4.30
2018-07-02T06:59:11.734Z,4.60
2018-07-02T07:01:40.232Z,4.33
2018-07-02T07:04:08.694Z,4.97
2018-07-02T07:06:37.302Z,27.27
2018-07-02T07:09:07.810Z,4.37
2018-07-02T07:11:36.334Z,5.40
2018-07-02T07:14:04.886Z,4.73
2018-07-02T07:16:33.458Z,5.00
2018-07-02T07:19:02.091Z,5.07
2018-07-02T07:21:30.690Z,6.90
2018-07-02T07:23:59.374Z,4.53
2018-07-02T07:26:27.891Z,6.07
2018-07-02T07:28:56.422Z,14.00
2018-07-02T07:31:24.966Z,7.67
2018-07-02T07:33:53.437Z,2.97
2018-07-02T07:36:21.937Z,4.70
2018-07-02T07:38:50.429Z,4.43
2018-07-02T07:41:18.971Z,4.17
2018-07-02T07:43:47.447Z,3.80
2018-07-02T07:46:15.923Z,6.00
2018-07-02T07:48:44.421Z,1.93
2018-07-02T07:51:12.997Z,2.57
2018-07-02T07:53:41.572Z,2.43
2018-07-02T07:56:10.065Z,3.90
2018-07-02T07:58:38.547Z,3.37
2018-07-02T08:01:11.975Z,3.33
2018-07-02T08:03:40.543Z,4.03
2018-07-02T08:06:09.100Z,3.47
2018-07-02T08:08:37.678Z,2.93
2018-07-02T08:11:06.334Z,5.13
2018-07-02T08:13:34.877Z,2.97
2018-07-02T08:16:03.366Z,3.80
2018-07-02T08:18:31.949Z,4.63
2018-07-02T08:21:00.545Z,2.33
2018-07-02T08:23:29.081Z,2.73
2018-07-02T08:25:57.637Z,1.80
2018-07-02T08:28:26.086Z,2.07
2018-07-02T08:30:54.581Z,1.67
2018-07-02T08:33:23.046Z,1.63
2018-07-02T08:35:51.553Z,1.37
2018-07-02T08:38:20.009Z,3.00
2018-07-02T08:40:48.505Z,2.23
2018-07-02T08:43:17.001Z,1.50
2018-07-02T08:45:45.483Z,2.20
2018-07-02T08:48:13.987Z,3.40
2018-07-02T08:50:42.497Z,1.10
2018-07-02T08:53:10.976Z,2.30
2018-07-02T08:55:39.521Z,3.27
2018-07-02T08:58:07.966Z,2.03
2018-07-02T09:00:36.467Z,2.13
2018-07-02T09:03:05.289Z,3.43
2018-07-02T09:05:33.833Z,2.23
2018-07-02T09:08:02.591Z,4.97
2018-07-02T09:10:31.149Z,1.10
2018-07-02T09:12:59.650Z,0.90
2018-07-02T09:15:28.149Z,3.30
2018-07-02T09:17:56.621Z,1.93
2018-07-02T09:20:25.263Z,2.03
2018-07-02T09:22:53.780Z,2.00
2018-07-02T09:25:22.322Z,2.07
2018-07-02T09:27:50.800Z,3.03
2018-07-02T09:30:19.278Z,2.10
2018-07-02T09:32:47.765Z,0.73
2018-07-02T09:35:16.413Z,2.13
2018-07-02T09:37:44.935Z,0.87
2018-07-02T09:40:14.421Z,2.93
2018-07-02T09:42:42.884Z,2.93
2018-07-02T09:45:12.321Z,1.00
2018-07-02T09:47:40.920Z,1.87
2018-07-02T09:50:09.729Z,3.17
2018-07-02T09:52:39.147Z,2.70
2018-07-02T09:55:07.709Z,1.27
2018-07-02T09:57:36.305Z,1.17
2018-07-02T10:00:05.501Z,1.87
2018-07-02T10:02:34.005Z,5.43
2018-07-02T10:05:02.527Z,1.50
2018-07-02T10:07:31.066Z,1.87
2018-07-02T10:09:59.553Z,2.13
2018-07-02T10:12:28.114Z,2.70
2018-07-02T10:14:56.588Z,1.47
2018-07-02T10:17:25.085Z,2.07
2018-07-02T10:19:53.626Z,3.27
2018-07-02T10:22:22.127Z,1.90
2018-07-02T10:24:50.662Z,1.80
2018-07-02T10:27:19.201Z,2.20
2018-07-02T10:29:47.875Z,1.17
2018-07-02T10:32:16.431Z,1.40
2018-07-02T10:34:44.952Z,5.13
2018-07-02T10:37:13.573Z,3.43
2018-07-02T10:39:42.423Z,3.33
2018-07-02T10:42:10.961Z,2.67
2018-07-02T10:44:39.433Z,2.40
2018-07-02T10:47:07.951Z,5.60
2018-07-02T10:49:36.490Z,6.17
2018-07-02T10:52:05.093Z,3.33
2018-07-02T10:54:33.625Z,2.40
2018-07-02T10:57:02.170Z,2.87
2018-07-02T10:59:33.405Z,2.80
2018-07-02T11:02:01.914Z,1.53
2018-07-02T11:04:31.076Z,1.97
2018-07-02T11:06:59.589Z,1.67
2018-07-02T11:09:28.123Z,1.83
2018-07-02T11:11:56.604Z,2.37
2018-07-02T11:14:25.149Z,1.07
2018-07-02T11:16:53.605Z,2.67
2018-07-02T11:19:22.104Z,1.23
2018-07-02T11:21:50.622Z,2.83
2018-07-02T11:24:19.172Z,0.80
2018-07-02T11:26:47.673Z,0.90
2018-07-02T11:29:16.201Z,1.43
2018-07-02T11:31:44.377Z,1.90
2018-07-02T11:34:12.893Z,1.23
2018-07-02T11:36:41.359Z,1.10
2018-07-02T11:39:10.954Z,2.00
2018-07-02T11:41:39.755Z,1.83
2018-07-02T11:44:08.398Z,1.43
2018-07-02T11:46:36.914Z,1.80
2018-07-02T11:49:05.542Z,1.10
2018-07-02T11:51:34.065Z,1.60
2018-07-02T11:54:02.578Z,2.10
2018-07-02T11:56:31.251Z,0.83
2018-07-02T11:59:00.627Z,0.90
2018-07-02T12:01:29.133Z,0.87
2018-07-02T12:03:57.680Z,2.10
2018-07-02T12:06:26.267Z,1.57
2018-07-02T12:08:54.753Z,1.63
2018-07-02T12:11:23.358Z,1.73
2018-07-02T12:13:51.849Z,0.80
2018-07-02T12:16:20.406Z,2.03
2018-07-02T12:18:49.510Z,0.70
2018-07-02T12:21:18.043Z,2.30
2018-07-02T12:23:46.528Z,0.93
2018-07-02T12:26:15.213Z,0.57
2018-07-02T12:28:43.674Z,1.07
2018-07-02T12:31:12.171Z,1.50
2018-07-02T12:33:40.669Z,3.13
2018-07-02T12:36:09.204Z,1.60
2018-07-02T12:38:37.706Z,1.47
2018-07-02T12:41:06.634Z,1.63
2018-07-02T12:43:35.057Z,1.03
2018-07-02T12:46:03.585Z,2.03
2018-07-02T12:48:32.119Z,0.70
2018-07-02T12:51:00.658Z,1.10
2018-07-02T12:53:29.308Z,1.47
2018-07-02T12:55:57.785Z,1.80
2018-07-02T12:58:26.257Z,1.10
2018-07-02T13:00:54.794Z,1.87
2018-07-02T13:03:23.458Z,1.90
2018-07-02T13:05:51.927Z,2.13
2018-07-02T13:08:20.485Z,0.83
2018-07-02T13:10:49.145Z,3.70
2018-07-02T13:13:18.274Z,0.97
2018-07-02T13:15:46.433Z,2.33
2018-07-02T13:18:15.006Z,0.80
2018-07-02T13:20:43.587Z,0.90
2018-07-02T13:23:12.049Z,2.27
2018-07-02T13:25:40.528Z,0.73
2018-07-02T13:28:09.049Z,0.93
2018-07-02T13:30:37.710Z,3.83
2018-07-02T13:33:06.246Z,1.90
2018-07-02T13:35:34.770Z,1.50
2018-07-02T13:38:03.322Z,1.10
2018-07-02T13:40:32.373Z,3.07
2018-07-02T13:43:00.930Z,6.13
2018-07-02T14:05:40.365Z,1.67
2018-07-02T14:08:08.841Z,1.57
2018-07-02T14:10:37.313Z,3.43
2018-07-02T14:13:05.850Z,1.23
2018-07-02T14:15:34.489Z,0.77
2018-07-02T14:18:03.538Z,1.80
2018-07-02T14:20:32.052Z,2.17
2018-07-02T14:23:00.533Z,2.00
2018-07-02T14:25:29.050Z,1.73
2018-07-02T14:27:57.758Z,1.30
2018-07-02T14:30:26.270Z,0.87
2018-07-02T14:32:54.902Z,1.00
2018-07-02T14:35:23.414Z,1.63
2018-07-02T14:37:51.922Z,1.47
2018-07-02T14:40:20.450Z,0.60
2018-07-02T14:42:48.917Z,1.83
2018-07-02T14:45:17.592Z,0.90
2018-07-02T14:47:46.753Z,3.07
2018-07-02T14:50:15.237Z,0.70
2018-07-02T14:52:43.766Z,1.53
2018-07-02T14:55:12.318Z,0.90
2018-07-02T14:57:40.810Z,1.20
2018-07-02T15:00:09.336Z,4.87
2018-07-02T15:02:37.841Z,1.03
2018-07-02T15:05:06.633Z,1.10
2018-07-02T15:07:35.095Z,1.20
2018-07-02T15:10:03.686Z,1.20
2018-07-02T15:12:32.162Z,2.73
2018-07-02T15:15:00.659Z,0.87
2018-07-02T15:17:29.105Z,2.17
2018-07-02T15:19:57.594Z,1.17
2018-07-02T15:22:26.109Z,1.53
2018-07-02T15:24:54.611Z,1.83
2018-07-02T15:27:23.438Z,1.83
2018-07-02T15:29:52.038Z,1.03
2018-07-02T15:32:20.620Z,1.67
2018-07-02T15:34:49.122Z,1.20
2018-07-02T15:37:17.641Z,1.10
2018-07-02T15:39:46.205Z,1.27
2018-07-02T15:42:14.686Z,1.73
2018-07-02T15:44:43.151Z,0.90
2018-07-02T15:47:11.680Z,1.00
2018-07-02T15:49:40.244Z,1.50
2018-07-02T15:52:08.846Z,2.67
2018-07-02T15:54:37.349Z,2.97
2018-07-02T15:57:05.954Z,1.90
2018-07-02T15:59:34.537Z,1.83
2018-07-02T16:02:03.058Z,2.53
2018-07-02T16:04:31.742Z,3.60
2018-07-02T16:07:00.258Z,1.80
2018-07-02T16:09:28.999Z,2.73
2018-07-02T16:11:57.256Z,1.03
2018-07-02T16:14:25.870Z,1.97
2018-07-02T16:16:54.366Z,1.63
2018-07-02T16:19:22.858Z,1.50
2018-07-02T16:21:51.349Z,1.60
2018-07-02T16:24:20.159Z,1.80
2018-07-02T16:26:48.461Z,2.10
2018-07-02T16:29:17.975Z,1.30
2018-07-02T16:31:46.502Z,1.90
2018-07-02T16:34:14.998Z,2.03
2018-07-02T16:36:43.493Z,1.73
2018-07-02T16:39:12.113Z,1.67
2018-07-02T16:41:40.612Z,2.43
2018-07-02T16:44:09.217Z,1.73
2018-07-02T16:46:37.721Z,1.87
2018-07-02T16:49:06.249Z,2.30
2018-07-02T16:51:35.070Z,1.50
2018-07-02T16:54:04.154Z,1.83
2018-07-02T16:56:33.510Z,1.70
2018-07-02T16:59:02.093Z,2.47
2018-07-02T17:01:30.605Z,1.80
2018-07-02T17:03:59.158Z,2.37
2018-07-02T17:06:27.692Z,0.90
2018-07-02T17:08:56.169Z,1.73
2018-07-02T17:11:24.766Z,1.13
2018-07-02T17:13:53.372Z,1.20
2018-07-02T17:16:21.903Z,2.00
2018-07-02T17:18:50.602Z,1.20
2018-07-02T17:21:19.182Z,1.40
2018-07-02T17:23:47.770Z,1.47
2018-07-02T17:26:16.249Z,2.20
2018-07-02T17:28:44.861Z,1.20
2018-07-02T17:31:13.405Z,1.20
2018-07-02T17:33:42.106Z,1.70
2018-07-02T17:36:10.592Z,1.83
2018-07-02T17:38:39.112Z,1.70
2018-07-02T17:41:07.632Z,2.57
2018-07-02T17:43:36.161Z,1.40
2018-07-02T17:46:04.722Z,1.33
2018-07-02T17:48:33.297Z,1.53
2018-07-02T17:51:01.859Z,1.77
2018-07-02T17:53:30.427Z,1.90
2018-07-02T17:55:58.904Z,2.07
2018-07-02T17:58:27.413Z,1.73
2018-07-02T18:00:56.018Z,2.43
2018-07-02T18:03:24.690Z,4.20
2018-07-02T18:05:53.177Z,3.80
2018-07-02T18:08:21.662Z,3.83
2018-07-02T18:10:50.246Z,2.63
2018-07-02T18:13:18.799Z,2.90
2018-07-02T18:15:47.356Z,2.53
2018-07-02T18:18:15.850Z,4.17
2018-07-02T18:20:44.553Z,20.53
2018-07-02T18:23:13.069Z,67.07
2018-07-02T18:25:41.723Z,95.40
2018-07-02T18:28:10.265Z,87.20
2018-07-02T18:30:38.821Z,48.20
2018-07-02T18:33:07.356Z,26.37
2018-07-02T18:35:35.958Z,14.60
2018-07-02T18:38:04.545Z,13.20
2018-07-02T18:40:32.893Z,11.13
2018-07-02T18:43:01.476Z,19.70
2018-07-02T18:45:30.031Z,19.87
2018-07-02T18:47:58.602Z,20.70
2018-07-02T18:50:27.373Z,18.30
2018-07-02T18:52:55.985Z,16.03
2018-07-02T18:55:26.007Z,6.67
2018-07-02T18:57:54.714Z,4.83
2018-07-02T19:00:23.370Z,4.00
2018-07-02T19:02:52.018Z,5.57
2018-07-02T19:05:20.690Z,3.23
2018-07-02T19:07:49.203Z,2.50
2018-07-02T19:10:17.713Z,3.70
2018-07-02T19:12:46.275Z,5.77
2018-07-02T19:15:14.823Z,5.07
2018-07-02T19:17:43.341Z,5.77
2018-07-02T19:20:11.895Z,3.17
2018-07-02T19:22:40.548Z,4.13
2018-07-02T19:25:09.592Z,4.23
2018-07-02T19:27:38.144Z,6.83
2018-07-02T19:30:06.741Z,6.17
2018-07-02T19:32:35.239Z,5.97
2018-07-02T19:35:03.879Z,6.33
2018-07-02T19:37:32.438Z,6.63
2018-07-02T19:40:01.140Z,5.87
2018-07-02T19:42:29.637Z,10.80
2018-07-02T19:44:58.133Z,9.87
2018-07-02T19:47:26.788Z,6.17
2018-07-02T19:49:57.464Z,5.67
2018-07-02T19:52:28.231Z,7.27
2018-07-02T19:55:03.333Z,32.53
2018-07-02T19:57:34.017Z,5.47
2018-07-02T20:00:03.984Z,5.73
2018-07-02T20:02:33.219Z,7.70
2018-07-02T20:05:02.135Z,6.63
2018-07-02T20:07:30.678Z,4.67
2018-07-02T20:09:59.259Z,9.13
2018-07-02T20:12:28.508Z,6.27
2018-07-02T20:14:57.065Z,5.27
2018-07-02T20:17:25.658Z,5.47
2018-07-02T20:19:54.703Z,6.90
2018-07-02T20:22:23.531Z,8.47
2018-07-02T20:24:52.300Z,6.27
2018-07-02T20:27:21.220Z,7.37
2018-07-02T20:29:50.070Z,7.43
2018-07-02T20:32:18.622Z,7.57
2018-07-02T20:34:47.462Z,8.23
2018-07-02T20:37:16.093Z,9.00
2018-07-02T20:39:44.753Z,7.37
2018-07-02T20:42:13.302Z,10.80
2018-07-02T20:44:41.941Z,9.43
2018-07-02T20:47:10.470Z,7.93
2018-07-02T20:49:39.773Z,6.30
2018-07-02T20:52:11.574Z,9.93
2018-07-02T20:54:40.512Z,9.17
2018-07-02T20:57:10.802Z,8.73
2018-07-02T20:59:43.842Z,7.77
2018-07-02T21:02:12.608Z,10.33
2018-07-02T21:04:41.143Z,8.27
2018-07-02T21:10:41.945Z,7.23
2018-07-02T21:13:10.510Z,9.37
2018-07-02T21:15:39.451Z,10.93
2018-07-02T21:18:08.335Z,8.20
2018-07-02T21:20:37.655Z,9.53
2018-07-02T21:23:06.282Z,6.93
2018-07-02T21:25:34.982Z,7.37
2018-07-02T21:28:03.569Z,8.13
2018-07-02T21:30:32.161Z,6.83
2018-07-02T21:33:00.920Z,10.70
2018-07-02T21:35:29.462Z,8.87
2018-07-02T21:37:58.059Z,9.00
2018-07-02T21:40:41.644Z,6.87
2018-07-02T21:43:10.274Z,9.47
2018-07-02T21:45:38.818Z,6.77
2018-07-02T21:48:07.319Z,9.67
2018-07-02T21:50:35.849Z,8.77
2018-07-02T21:53:04.370Z,12.97
2018-07-02T21:55:32.968Z,6.80
2018-07-02T21:58:01.451Z,8.37
2018-07-02T22:00:33.007Z,7.60
2018-07-02T22:03:01.465Z,7.37
2018-07-02T22:05:29.949Z,6.40
2018-07-02T22:07:58.516Z,10.37
2018-07-02T22:10:27.066Z,7.90
2018-07-02T22:12:55.613Z,9.20
2018-07-02T22:15:24.419Z,9.47
2018-07-02T22:17:55.434Z,10.27
2018-07-02T22:20:25.135Z,11.13
2018-07-02T22:23:01.869Z,11.70
2018-07-02T22:25:31.621Z,11.67
2018-07-02T22:28:00.547Z,11.47
2018-07-02T22:30:30.016Z,8.57
2018-07-02T22:32:59.012Z,9.37
2018-07-02T22:35:27.846Z,11.37
2018-07-02T22:37:58.058Z,9.37
2018-07-02T22:40:27.501Z,9.00
2018-07-02T22:42:59.320Z,11.63
2018-07-02T22:45:28.373Z,11.10
2018-07-02T22:47:57.121Z,9.83
2018-07-02T22:50:26.382Z,11.40
2018-07-02T22:52:55.295Z,10.67
2018-07-02T22:55:24.206Z,12.63
2018-07-02T22:57:52.929Z,12.20
2018-07-02T23:00:22.973Z,12.67
2018-07-02T23:02:53.088Z,8.50
2018-07-02T23:05:22.031Z,8.93
2018-07-02T23:07:50.962Z,8.53
2018-07-02T23:10:20.309Z,9.63
2018-07-02T23:12:49.394Z,10.63
2018-07-02T23:15:19.216Z,51.63
2018-07-02T23:17:48.030Z,9.23
2018-07-02T23:20:17.277Z,11.63
2018-07-02T23:22:57.526Z,8.80
2018-07-02T23:25:27.353Z,8.77
2018-07-02T23:27:57.272Z,10.00
2018-07-02T23:30:26.898Z,9.83
2018-07-02T23:32:55.922Z,10.57
2018-07-02T23:35:24.887Z,10.00
2018-07-02T23:37:54.228Z,7.53
2018-07-02T23:40:24.552Z,12.17
2018-07-02T23:42:55.681Z,7.70
2018-07-02T23:45:25.170Z,9.13
2018-07-02T23:47:54.333Z,9.43
2018-07-02T23:50:24.259Z,12.27
2018-07-02T23:52:54.445Z,10.10
2018-07-02T23:55:23.489Z,10.77
2018-07-02T23:57:53.121Z,8.83
